DW1902 Weather Reports


Display with metric or nautical units.
time (UTC)temp
F
wind
direction
speed
MPH
gust
MPH
rain 1hr
in
rain 24hr
in
rain mn
in
humidity
%
barometer
mb
20170526185707 51 98 2.0 7.0 0.00 1.01 0.99 100 1000.5
20170526185205 51 98 2.0 7.0 0.00 1.01 0.99 100 1000.5
20170526184706 50 88 2.0 7.0 0.00 1.01 0.99 99 1000.5
20170526184207 51 86 2.0 6.0 0.00 1.01 0.99 99 1000.5
20170526183706 51 119 2.0 7.0 0.00 1.01 0.99 99 1000.6
20170526183206 51 89 2.0 7.0 0.00 1.01 0.99 99 1000.5
20170526182705 52 90 1.0 8.0 0.00 1.01 0.99 99 1000.5
20170526182206 52 80 1.0 8.0 0.00 1.01 0.99 98 1000.4
20170526181707 52 74 2.0 8.0 0.00 1.01 0.99 99 1000.4
20170526181206 53 52 2.0 8.0 0.00 1.01 0.99 99 1000.4
20170526180706 52 86 3.0 8.0 0.00 1.01 0.99 100 1000.4
20170526180206 51 46 2.0 8.0 0.00 1.01 0.99 100 1000.6
20170526175706 52 63 2.0 7.0 0.00 1.01 0.99 100 1000.6
20170526175205 52 104 2.0 11.0 0.00 1.01 0.99 100 1000.7
20170526174706 51 76 2.0 11.0 0.00 1.01 0.99 100 1000.7
20170526174206 52 52 2.0 11.0 0.00 1.01 0.99 100 1000.9
20170526173706 52 44 1.0 5.0 0.00 1.01 0.99 100 1001.0
20170526173206 52 74 1.0 8.0 0.00 1.01 0.99 100 1001.2
20170526172705 51 91 1.0 8.0 0.00 1.01 0.99 100 1001.1
20170526172206 51 78 2.0 8.0 0.00 1.01 0.99 100 1001.1
20170526171706 51 88 2.0 10.0 0.00 1.01 0.99 100 1001.2
20170526171206 50 77 3.0 11.0 0.00 1.01 0.99 100 1001.3
20170526170706 50 26 3.0 11.0 0.00 1.01 0.99 100 1001.4
20170526170206 50 93 2.0 7.0 0.00 1.01 0.99 100 1001.5
20170526165706 50 83 2.0 7.0 0.00 1.01 0.99 100 1001.6
20170526165206 49 49 2.0 10.0 0.00 1.01 0.99 100 1001.6
20170526164706 50 65 2.0 11.0 0.00 1.01 0.99 100 1001.7
20170526164206 49 98 3.0 13.0 0.00 1.01 0.99 100 1001.7
20170526163705 49 86 4.0 13.0 0.00 1.01 0.99 100 1001.8
20170526163207 49 57 3.0 10.0 0.00 1.01 0.99 100 1001.9
20170526162706 49 62 4.0 11.0 0.00 1.01 0.99 100 1001.9
20170526162205 49 46 5.0 11.0 0.00 1.01 0.99 100 1001.9
20170526161707 49 60 5.0 14.0 0.00 1.01 0.99 100 1001.8
20170526161206 49 61 5.0 14.0 0.00 1.01 0.99 100 1001.7
20170526160707 49 30 4.0 14.0 0.00 1.01 0.99 100 1001.9
20170526160205 48 57 3.0 12.0 0.00 1.01 0.99 100 1002.1
20170526155706 48 100 3.0 12.0 0.00 1.01 0.99 100 1002.1
20170526155207 48 49 4.0 12.0 0.00 1.01 0.99 100 1002.2
20170526154706 48 78 4.0 12.0 0.00 1.01 0.99 100 1002.3
20170526154205 48 65 4.0 12.0 0.00 1.01 0.99 100 1002.4
20170526153705 48 111 3.0 12.0 0.00 1.01 0.99 100 1002.3
20170526153207 48 58 3.0 11.0 0.00 1.01 0.99 100 1002.5
20170526152707 48 86 4.0 11.0 0.00 1.01 0.99 100 1002.6
20170526152205 47 82 3.0 11.0 0.00 1.01 0.99 100 1002.6
20170526151706 47 69 3.0 11.0 0.00 1.01 0.99 100 1002.7
20170526151206 48 5 3.0 13.0 0.00 1.01 0.99 100 1002.7
20170526150705 47 74 4.0 13.0 0.00 1.01 0.99 100 1002.6
20170526150205 47 74 4.0 13.0 0.00 1.01 0.99 100 1002.7
20170526145707 47 88 4.0 13.0 0.00 1.01 0.99 100 1002.7
20170526145206 47 65 4.0 13.0 0.00 1.01 0.99 100 1002.9
20170526144707 47 58 4.0 13.0 0.00 1.01 0.99 100 1003.0
20170526144206 47 89 5.0 13.0 0.00 1.01 0.99 100 1003.1
20170526143706 47 90 5.0 14.0 0.01 1.01 0.99 100 1003.0
20170526143206 47 66 5.0 14.0 0.02 1.01 0.99 100 1003.1
20170526142705 47 92 5.0 15.0 0.03 1.01 0.99 100 1003.0
20170526142211 47 103 5.0 15.0 0.05 1.01 0.99 100 1003.2
20170526141706 47 77 5.0 15.0 0.07 1.01 0.99 100 1003.3
20170526141207 47 90 4.0 16.0 0.09 1.01 0.99 100 1003.5
20170526140706 47 77 5.0 16.0 0.12 1.01 0.99 100 1003.4
20170526140206 46 40 5.0 16.0 0.15 1.01 0.99 100 1003.4
20170526135707 46 65 5.0 14.0 0.18 1.01 0.99 100 1003.5
20170526135207 46 86 4.0 14.0 0.20 1.01 0.99 100 1003.6
20170526134706 46 121 3.0 14.0 0.23 1.01 0.99 100 1003.7
20170526134206 46 82 4.0 14.0 0.24 1.00 0.98 100 1003.8
20170526133705 46 39 4.0 12.0 0.32 1.00 0.98 100 1003.6
20170526133206 46 128 5.0 14.0 0.35 0.99 0.97 100 1003.4
20170526132706 46 61 6.0 15.0 0.34 0.97 0.95 100 1003.5
20170526132207 46 103 6.0 15.0 0.32 0.94 0.93 100 1003.8
20170526131705 46 67 6.0 15.0 0.31 0.93 0.91 100 1003.9
20170526131206 46 12 6.0 13.0 0.29 0.91 0.89 100 1004.0
20170526130706 46 98 4.0 16.0 0.26 0.87 0.86 100 1004.1
20170526130207 46 92 4.0 16.0 0.24 0.85 0.83 100 1004.2
20170526125705 46 79 5.0 16.0 0.21 0.82 0.80 100 1004.3
20170526125207 46 86 5.0 21.0 0.19 0.79 0.77 100 1004.4
20170526124706 46 74 7.0 21.0 0.18 0.77 0.76 100 1004.3
20170526124206 46 63 7.0 16.0 0.14 0.72 0.71 100 1004.3
20170526123706 46 79 5.0 18.0 0.09 0.65 0.64 100 1004.4
20170526123206 46 78 6.0 18.0 0.07 0.63 0.61 100 1004.8
20170526122705 46 88 7.0 21.0 0.07 0.62 0.61 100 1004.5
20170526122206 46 97 7.0 21.0 0.09 0.62 0.61 100 1004.3
20170526121706 46 48 9.0 21.0 0.10 0.62 0.61 100 1004.3
20170526121206 46 50 8.0 19.0 0.11 0.61 0.60 100 1004.3
20170526120707 46 98 6.0 22.0 0.12 0.61 0.59 100 1004.7
20170526120206 46 104 7.0 22.0 0.14 0.61 0.59 100 1004.9
20170526115708 46 74 8.0 22.0 0.16 0.60 0.58 100 1004.8
20170526115206 46 111 8.0 21.0 0.18 0.60 0.58 100 1004.8
20170526114706 46 54 8.0 25.0 0.20 0.59 0.57 100 1005.1
20170526114210 46 86 9.0 25.0 0.20 0.57 0.55 100 1005.3
20170526113706 45 60 7.0 25.0 0.23 0.57 0.55 100 1005.2
20170526113206 45 55 6.0 24.0 0.33 0.55 0.54 100 1005.7
20170526112706 45 80 7.0 24.0 0.33 0.54 0.52 100 1005.6
20170526112205 45 61 8.0 19.0 0.35 0.54 0.52 100 1005.9
20170526111707 45 49 8.0 19.0 0.36 0.51 0.50 100 1005.7
20170526111206 45 68 8.0 20.0 0.33 0.50 0.48 100 1005.8
20170526110706 45 72 8.0 20.0 0.33 0.45 0.43 100 1006.1
20170526110206 45 90 7.0 21.0 0.31 0.45 0.43 100 1006.3
20170526105705 45 25 6.0 21.0 0.30 0.43 0.42 100 1006.5
20170526105206 45 84 6.0 18.0 0.24 0.41 0.39 100 1007.2
20170526104707 45 96 6.0 18.0 0.24 0.36 0.35 100 1007.4
20170526104206 45 80 5.0 15.0 0.18 0.36 0.35 100 1007.6
20170526103706 45 61 6.0 15.0 0.18 0.28 0.24 100 1007.5
20170526103207 45 79 6.0 15.0 0.10 0.28 0.24 100 1007.6
20170526102705 45 64 6.0 15.0 0.10 0.18 0.17 100 1007.8
20170526102206 45 137 6.0 20.0 0.06 0.18 0.17 100 1007.3
20170526101706 45 116 6.0 20.0 0.04 0.17 0.13 100 1007.4
20170526101206 45 86 6.0 19.0 0.04 0.14 0.13 100 1007.7
20170526100706 44 88 7.0 19.0 0.04 0.13 0.11 100 1007.5
20170526100207 44 36 7.0 20.0 0.03 0.13 0.11 100 1007.6
20170526095705 44 70 7.0 20.0 0.02 0.13 0.11 100 1007.7
20170526095206 44 55 7.0 16.0 0.03 0.12 0.10 100 1007.7
20170526094706 44 56 6.0 16.0 0.03 0.12 0.10 100 1007.8
20170526094207 44 50 6.0 16.0 0.02 0.12 0.10 100 1008.1
20170526093706 44 110 6.0 16.0 0.02 0.11 0.09 100 1008.1
20170526093206 44 51 7.0 20.0 0.02 0.10 0.09 100 1007.9
20170526092707 44 63 7.0 20.0 0.02 0.10 0.09 100 1008.2
20170526092207 44 52 7.0 20.0 0.02 0.10 0.09 100 1008.3
20170526091706 44 90 7.0 20.0 0.02 0.10 0.09 100 1008.3
20170526091206 44 71 7.0 21.0 0.02 0.10 0.09 100 1008.3
20170526090706 44 71 7.0 21.0 0.02 0.09 0.08 100 1008.5
20170526090206 44 80 6.0 21.0 0.02 0.09 0.08 100 1008.6
20170526085707 44 76 6.0 21.0 0.02 0.09 0.08 100 1008.8
20170526085206 44 92 7.0 22.0 0.01 0.09 0.07 100 1008.8
20170526084706 44 61 7.0 22.0 0.01 0.09 0.07 100 1008.5
20170526084207 44 34 6.0 25.0 0.02 0.09 0.07 100 1008.6
20170526083706 44 82 7.0 25.0 0.02 0.09 0.07 100 1008.6
20170526083207 44 25 7.0 25.0 0.02 0.09 0.07 100 1008.7
20170526082706 44 107 8.0 25.0 0.02 0.09 0.07 100 1008.7
20170526082206 44 45 7.0 21.0 0.02 0.09 0.07 100 1008.7
20170526081708 44 65 6.0 21.0 0.01 0.09 0.07 100 1008.8
20170526081206 44 60 8.0 20.0 0.02 0.08 0.06 100 1008.8
20170526080706 44 78 8.0 20.0 0.02 0.08 0.06 100 1008.9
20170526080205 44 71 7.0 17.0 0.02 0.08 0.06 100 1009.1
20170526075705 44 59 6.0 17.0 0.02 0.08 0.06 100 1009.6
20170526075206 44 52 5.0 13.0 0.02 0.08 0.06 100 1009.8
20170526074706 44 101 5.0 13.0 0.02 0.08 0.06 100 1010.1
20170526074206 44 69 5.0 13.0 0.01 0.07 0.06 100 1010.5
20170526073707 44 70 5.0 13.0 0.01 0.07 0.06 100 1010.8
20170526073207 44 58 6.0 16.0 0.01 0.07 0.06 100 1010.7
20170526072706 44 37 6.0 18.0 0.01 0.07 0.06 100 1010.7
20170526072207 44 82 6.0 18.0 0.02 0.07 0.06 100 1010.9
20170526071706 44 82 6.0 18.0 0.02 0.07 0.06 100 1010.9
20170526071206 44 57 6.0 16.0 0.01 0.06 0.05 100 1011.2
20170526070706 44 69 5.0 16.0 0.02 0.06 0.05 100 1011.3
20170526070205 44 96 3.0 12.0 0.02 0.06 0.05 100 1011.4
20170526065707 44 92 3.0 18.0 0.02 0.06 0.05 100 1011.5
20170526065208 44 98 4.0 18.0 0.02 0.06 0.05 100 1011.5
20170526064706 44 0 5.0 18.0 0.02 0.06 0.05 100 1011.5
20170526064206 44 53 5.0 15.0 0.02 0.06 0.05 100 1011.1
20170526063706 44 70 5.0 15.0 0.02 0.06 0.05 100 1011.1
20170526063207 44 136 4.0 13.0 0.02 0.06 0.05 100 1011.2
20170526062705 44 55 4.0 12.0 0.01 0.06 0.04 100 1011.4
20170526062205 44 93 4.0 12.0 0.01 0.06 0.04 100 1011.7
20170526061706 44 78 4.0 15.0 0.02 0.06 0.04 100 1011.7
20170526061206 44 52 5.0 15.0 0.01 0.05 0.03 100 1011.7
20170526060706 44 82 5.0 15.0 0.02 0.05 0.03 100 1011.8
20170526060207 44 84 4.0 13.0 0.02 0.05 0.03 100 1012.0
20170526055705 44 67 4.0 13.0 0.02 0.05 0.03 100 1012.2
20170526055206 44 78 4.0 13.0 0.03 0.05 0.03 100 1012.3
20170526054710 44 72 3.0 11.0 0.03 0.05 0.03 100 1012.2
20170526054210 44 59 3.0 11.0 0.03 0.05 0.03 100 1012.0
20170526053709 44 57 3.0 14.0 0.03 0.05 0.03 100 1012.0
20170526053210 44 82 3.0 14.0 0.03 0.05 0.03 100 1012.1
20170526052712 44 70 4.0 14.0 0.03 0.05 0.03 100 1012.0
20170526052206 44 84 4.0 15.0 0.03 0.05 0.03 100 1012.0
20170526051707 44 53 4.0 15.0 0.02 0.04 0.02 100 1012.1
20170526051205 44 64 4.0 15.0 0.02 0.04 0.02 100 1012.1
20170526050705 44 61 3.0 14.0 0.02 0.03 0.02 100 1012.1
20170526050206 45 65 4.0 16.0 0.01 0.02 0.01 99 1012.3
20170526045706 45 63 4.0 16.0 0.00 0.02 0.00 99 1012.3
20170526045206 45 85 4.0 16.0 0.00 0.02 0.00 99 1012.4
20170526044705 45 38 3.0 10.0 0.00 0.02 0.00 99 1012.5
20170526044213 45 69 3.0 13.0 0.00 0.02 0.00 99 1012.6
20170526043720 45 68 3.0 13.0 0.00 0.02 0.00 99 1012.8
20170526043220 45 57 2.0 13.0 0.00 0.02 0.00 99 1013.0
20170526042713 45 29 3.0 12.0 0.00 0.02 0.00 99 1013.2
20170526042226 45 57 3.0 12.0 0.00 0.02 0.00 99 1013.1
20170526041721 45 102 4.0 12.0 0.00 0.02 0.00 99 1013.2
20170526041206 45 61 4.0 13.0 0.00 0.02 0.00 99 1013.3
20170526040705 45 74 4.0 13.0 0.00 0.02 0.00 99 1013.4
20170526040207 45 58 4.0 13.0 0.00 0.02 0.00 99 1013.3
20170526035705 45 59 4.0 13.0 0.00 0.02 0.00 99 1013.4
20170526035206 45 81 4.0 11.0 0.00 0.02 0.00 99 1013.4
20170526034706 45 98 4.0 11.0 0.00 0.02 0.00 99 1013.2
20170526034206 45 134 5.0 18.0 0.00 0.02 0.00 99 1013.2
20170526033706 45 80 5.0 18.0 0.00 0.02 0.00 99 1013.5
20170526033205 45 75 4.0 18.0 0.00 0.02 0.00 99 1013.7
20170526032706 45 59 4.0 11.0 0.00 0.02 0.00 99 1014.0
20170526032206 45 86 3.0 12.0 0.00 0.02 0.00 99 1014.0
20170526031706 45 44 3.0 12.0 0.00 0.02 0.00 99 1014.1
20170526031205 45 129 3.0 13.0 0.00 0.02 0.00 99 1014.1
20170526030705 45 77 4.0 17.0 0.00 0.02 0.00 99 1014.1
20170526030206 45 96 5.0 17.0 0.00 0.02 0.02 98 1014.0
20170526025706 45 47 5.0 17.0 0.00 0.02 0.02 98 1014.1
20170526025209 45 55 5.0 16.0 0.00 0.02 0.02 99 1014.1
20170526024708 45 101 5.0 16.0 0.00 0.02 0.02 98 1014.2
20170526024206 45 60 4.0 17.0 0.00 0.02 0.02 99 1014.2
20170526023707 45 82 5.0 18.0 0.00 0.02 0.02 98 1014.3
20170526023207 45 80 5.0 18.0 0.00 0.02 0.02 99 1014.2
20170526022707 45 79 5.0 16.0 0.00 0.02 0.02 99 1014.4
20170526022205 45 95 6.0 16.0 0.00 0.02 0.02 99 1014.4
20170526021706 45 88 6.0 16.0 0.00 0.02 0.02 99 1014.5
20170526021207 45 57 6.0 16.0 0.00 0.02 0.02 99 1014.6
20170526020706 45 66 6.0 16.0 0.00 0.02 0.02 99 1014.8
20170526020205 45 55 5.0 15.0 0.00 0.02 0.02 99 1014.7
20170526015707 45 12 5.0 15.0 0.00 0.02 0.02 99 1014.8
20170526015206 45 76 5.0 13.0 0.00 0.02 0.02 99 1014.6
20170526014705 45 117 5.0 13.0 0.00 0.02 0.02 100 1014.7
20170526014205 45 95 5.0 14.0 0.00 0.02 0.02 100 1014.9
20170526013706 45 80 5.0 14.0 0.00 0.02 0.02 99 1014.9
20170526013207 45 67 4.0 14.0 0.00 0.02 0.02 99 1015.0
20170526012712 45 71 4.0 14.0 0.00 0.02 0.02 100 1015.1
20170526012213 45 35 4.0 14.0 0.00 0.02 0.02 100 1015.2
20170526011706 45 93 4.0 15.0 0.00 0.02 0.02 100 1015.3
20170526011206 45 107 5.0 15.0 0.00 0.02 0.02 100 1015.4
20170526010705 45 88 5.0 15.0 0.00 0.02 0.02 100 1015.4
20170526010207 45 71 4.0 14.0 0.00 0.02 0.02 100 1015.4
20170526005706 45 32 4.0 16.0 0.01 0.02 0.02 100 1015.5
20170526005206 45 63 4.0 16.0 0.01 0.02 0.02 99 1015.6
20170526004706 45 65 4.0 16.0 0.01 0.02 0.02 99 1015.5
20170526004206 45 67 4.0 14.0 0.01 0.02 0.02 99 1015.6
20170526003706 45 28 5.0 12.0 0.01 0.02 0.02 100 1015.8
20170526003208 45 32 4.0 12.0 0.01 0.02 0.02 99 1015.7
20170526002706 45 104 3.0 12.0 0.01 0.02 0.02 99 1015.7
20170526002206 45 28 4.0 12.0 0.02 0.02 0.02 99 1015.7
20170526001712 45 76 4.0 10.0 0.02 0.02 0.02 99 1015.8
20170526001205 45 67 3.0 13.0 0.02 0.02 0.02 99 1015.8
20170526000705 45 64 3.0 13.0 0.02 0.02 0.02 99 1015.7
20170526000205 45 79 4.0 11.0 0.01 0.01 0.01 99 1015.7
20170525235706 45 41 4.0 11.0 0.01 0.01 0.01 99 1015.6
20170525235205 46 34 3.0 11.0 0.01 0.01 0.01 99 1015.6
20170525234705 46 85 4.0 14.0 0.01 0.01 0.01 99 1015.7
20170525234206 46 36 4.0 14.0 0.01 0.01 0.01 99 1015.6
20170525233706 46 62 4.0 13.0 0.01 0.01 0.01 98 1015.7
20170525233206 46 48 4.0 13.0 0.01 0.01 0.01 98 1015.8
20170525232707 46 51 4.0 13.0 0.01 0.01 0.01 98 1016.0
20170525232206 46 30 4.0 13.0 0.00 0.00 0.00 98 1016.0
20170525231707 46 38 3.0 13.0 0.00 0.00 0.00 98 1016.1
20170525231207 46 76 3.0 10.0 0.00 0.00 0.00 98 1016.2
20170525230706 46 70 3.0 9.0 0.00 0.00 0.00 98 1016.3
20170525230206 46 86 2.0 8.0 0.00 0.00 0.00 98 1016.2
20170525225706 46 93 2.0 10.0 0.00 0.00 0.00 99 1016.4
20170525225206 46 92 2.0 10.0 0.00 0.00 0.00 99 1016.4
20170525224706 46 49 3.0 10.0 0.00 0.00 0.00 99 1016.4
20170525224206 46 71 3.0 10.0 0.00 0.00 0.00 99 1016.3
20170525223706 46 69 3.0 11.0 0.00 0.00 0.00 99 1016.4
20170525223206 46 81 2.0 11.0 0.00 0.00 0.00 99 1016.4
20170525222706 46 28 2.0 13.0 0.00 0.00 0.00 99 1016.3
20170525222207 46 88 3.0 13.0 0.00 0.00 0.00 99 1016.2
20170525221706 46 103 4.0 13.0 0.00 0.00 0.00 99 1016.1
20170525221205 46 76 4.0 13.0 0.00 0.00 0.00 99 1016.2
20170525220706 46 88 4.0 13.0 0.00 0.00 0.00 99 1016.2
20170525220206 46 101 2.0 13.0 0.00 0.00 0.00 99 1016.3
20170525215706 46 90 2.0 13.0 0.00 0.00 0.00 99 1016.4
20170525215206 46 91 2.0 12.0 0.00 0.00 0.00 99 1016.3
20170525214707 46 87 3.0 12.0 0.00 0.00 0.00 99 1016.4
20170525214207 46 42 3.0 12.0 0.00 0.00 0.00 99 1016.4
20170525213707 46 69 3.0 12.0 0.00 0.00 0.00 99 1016.4
20170525213206 46 26 3.0 12.0 0.00 0.00 0.00 99 1016.3
20170525212706 46 78 3.0 7.0 0.00 0.00 0.00 99 1016.3
20170525212206 46 69 2.0 11.0 0.00 0.00 0.00 99 1016.4
20170525211706 46 121 2.0 11.0 0.00 0.00 0.00 98 1016.4
20170525211206 46 123 3.0 12.0 0.00 0.00 0.00 98 1016.3
20170525210706 46 62 3.0 12.0 0.00 0.00 0.00 98 1016.3
20170525210209 47 78 2.0 12.0 0.00 0.00 0.00 98 1016.2
20170525205706 47 53 3.0 11.0 0.00 0.00 0.00 98 1016.2
20170525205206 47 132 3.0 11.0 0.00 0.00 0.00 98 1016.2
20170525204706 47 94 3.0 11.0 0.00 0.00 0.00 98 1016.2
20170525204206 46 128 3.0 11.0 0.00 0.00 0.00 98 1016.2
20170525203707 47 74 2.0 11.0 0.00 0.00 0.00 97 1016.3
20170525203208 47 107 2.0 11.0 0.00 0.00 0.00 98 1016.2
20170525202706 47 76 3.0 11.0 0.00 0.00 0.00 97 1016.2
20170525202206 47 82 3.0 11.0 0.00 0.00 0.00 97 1016.2
20170525201706 47 100 2.0 9.0 0.00 0.00 0.00 96 1016.2
20170525201206 48 59 2.0 9.0 0.00 0.00 0.00 96 1016.3
20170525200705 48 103 2.0 9.0 0.00 0.00 0.00 97 1016.2
20170525200206 47 105 2.0 7.0 0.00 0.00 0.00 96 1016.3
20170525195705 48 74 1.0 7.0 0.00 0.00 0.00 95 1016.3
20170525195206 48 108 1.0 9.0 0.00 0.00 0.00 95 1016.3
20170525194706 48 86 2.0 9.0 0.00 0.00 0.00 95 1016.2
20170525194206 48 83 2.0 9.0 0.00 0.00 0.00 95 1016.4
20170525193706 48 38 2.0 9.0 0.00 0.00 0.00 94 1016.4
20170525193206 48 71 1.0 9.0 0.00 0.00 0.00 94 1016.5
20170525192706 49 69 2.0 8.0 0.00 0.00 0.00 94 1016.5
20170525192206 49 88 2.0 8.0 0.00 0.00 0.00 93 1016.5
20170525191706 49 105 2.0 8.0 0.00 0.00 0.00 92 1016.5
20170525191206 49 171 2.0 7.0 0.00 0.00 0.00 91 1016.6
20170525190706 49 103 2.0 6.0 0.00 0.00 0.00 90 1016.7
20170525190206 49 111 2.0 6.0 0.00 0.00 0.00 90 1016.7